createdAt,value
2022-08-14T00:01:02.527Z,100534.63
2022-08-14T00:03:37.569Z,100523.19
2022-08-14T00:06:25.835Z,100525.13
2022-08-14T00:08:53.936Z,100531.63
2022-08-14T00:11:20.420Z,100523.81
2022-08-14T00:13:52.652Z,100520.44
2022-08-14T00:16:41.274Z,100524.09
2022-08-14T00:19:18.514Z,100522.75
2022-08-14T00:21:46.536Z,100525.03
2022-08-14T00:24:13.656Z,100528.97
2022-08-14T00:26:49.955Z,100524.50
2022-08-14T00:29:21.346Z,100531.47
2022-08-14T00:31:55.241Z,100532.31
2022-08-14T00:34:37.044Z,100532.31
2022-08-14T00:37:10.904Z,100527.03
2022-08-14T00:39:37.688Z,100525.06
2022-08-14T00:42:05.626Z,100525.06
2022-08-14T00:44:33.356Z,100523.97
2022-08-14T00:47:10.650Z,100512.22
2022-08-14T00:49:42.823Z,100509.44
2022-08-14T00:52:17.651Z,100510.00
2022-08-14T00:54:46.845Z,100508.34
2022-08-14T00:57:13.457Z,100510.03
2022-08-14T00:59:40.542Z,100498.00
2022-08-14T01:02:09.236Z,100505.28
2022-08-14T01:04:50.891Z,100508.34
2022-08-14T01:07:22.665Z,100503.84
2022-08-14T01:10:01.895Z,100506.66
2022-08-14T01:12:30.277Z,100498.56
2022-08-14T01:15:02.031Z,100495.22
2022-08-14T01:17:52.100Z,100493.28
2022-08-14T01:20:40.829Z,100489.66
2022-08-14T01:23:16.561Z,100484.38
2022-08-14T01:25:51.657Z,100479.66
2022-08-14T01:28:46.671Z,100465.97
2022-08-14T01:31:15.513Z,100462.94
2022-08-14T01:35:15.751Z,100454.53
2022-08-14T01:36:37.963Z,100456.78
2022-08-14T01:39:13.307Z,100452.03
2022-08-14T01:41:42.156Z,100445.31
2022-08-14T01:44:31.383Z,100447.00
2022-08-14T01:47:21.881Z,100442.84
2022-08-14T01:49:59.634Z,100436.97
2022-08-14T01:52:57.783Z,100429.72
2022-08-14T01:55:19.857Z,100426.09
2022-08-14T01:57:49.449Z,100421.91
2022-08-14T02:00:29.569Z,100425.28
2022-08-14T02:02:58.282Z,100429.19
2022-08-14T02:05:29.493Z,100422.50
2022-08-14T02:08:09.520Z,100425.28
2022-08-14T02:10:47.346Z,100425.59
2022-08-14T02:13:15.982Z,100431.44
2022-08-14T02:15:43.729Z,100429.75
2022-08-14T02:18:11.762Z,100433.13
2022-08-14T02:20:41.751Z,100423.06
2022-08-14T02:23:09.068Z,100427.28
2022-08-14T02:25:36.220Z,100426.66
2022-08-14T02:28:23.957Z,100435.63
2022-08-14T02:30:52.620Z,100438.44
2022-08-14T02:33:21.194Z,100448.75
2022-08-14T02:35:52.865Z,100447.94
2022-08-14T02:38:30.154Z,100449.59
2022-08-14T02:41:00.589Z,100448.75
2022-08-14T02:43:36.703Z,100452.13
2022-08-14T02:46:12.621Z,100446.53
2022-08-14T02:49:03.390Z,100447.09
2022-08-14T02:51:30.460Z,100449.88
2022-08-14T02:53:58.404Z,100440.44
2022-08-14T02:56:30.830Z,100442.38
2022-08-14T02:59:17.082Z,100444.34
2022-08-14T03:01:51.026Z,100434.84
2022-08-14T03:04:21.541Z,100433.72
2022-08-14T03:06:57.691Z,100435.94
2022-08-14T03:09:25.572Z,100430.91
2022-08-14T03:12:09.076Z,100427.03
2022-08-14T03:14:55.961Z,100433.72
2022-08-14T03:17:23.061Z,100427.03
2022-08-14T03:19:49.776Z,100422.81
2022-08-14T03:22:18.079Z,100425.03
2022-08-14T03:24:44.923Z,100421.72
2022-08-14T03:27:13.951Z,100424.78
2022-08-14T03:29:40.844Z,100410.53
2022-08-14T03:32:07.945Z,100415.59
2022-08-14T03:34:48.014Z,100420.88
2022-08-14T03:37:51.841Z,100410.88
2022-08-14T03:40:07.124Z,100405.28
2022-08-14T03:42:39.376Z,100401.38
2022-08-14T03:45:25.121Z,100406.66
2022-08-14T03:47:58.875Z,100410.03
2022-08-14T03:50:31.346Z,100407.81
2022-08-14T03:53:03.215Z,100405.81
2022-08-14T03:55:30.760Z,100395.78
2022-08-14T03:57:58.294Z,100405.84
2022-08-14T04:00:42.809Z,100406.13
2022-08-14T04:03:10.870Z,100406.13
2022-08-14T04:05:43.325Z,100400.25
2022-08-14T04:08:29.810Z,100399.72
2022-08-14T04:11:02.781Z,100393.28
2022-08-14T04:13:35.641Z,100395.25
2022-08-14T04:16:05.328Z,100389.66
2022-08-14T04:18:45.777Z,100395.25
2022-08-14T04:21:14.845Z,100394.69
2022-08-14T04:23:44.160Z,100391.03
2022-08-14T04:26:14.487Z,100394.69
2022-08-14T04:29:01.578Z,100389.94
2022-08-14T04:32:58.456Z,100386.88
2022-08-14T04:34:27.975Z,100391.91
2022-08-14T04:37:30.507Z,100394.66
2022-08-14T04:40:15.526Z,100394.66
2022-08-14T04:43:01.396Z,100399.97
2022-08-14T04:45:40.617Z,100392.72
2022-08-14T04:48:13.843Z,100389.91
2022-08-14T04:51:01.167Z,100385.75
2022-08-14T04:53:35.466Z,100387.97
2022-08-14T04:56:06.124Z,100383.78
2022-08-14T04:58:37.734Z,100383.25
2022-08-14T05:01:12.700Z,100381.56
2022-08-14T05:03:44.676Z,100384.63
2022-08-14T05:06:38.272Z,100396.34
2022-08-14T05:09:00.010Z,100386.88
2022-08-14T05:11:28.099Z,100381.56
2022-08-14T05:14:33.127Z,100382.13
2022-08-14T05:16:44.215Z,100383.50
2022-08-14T05:19:18.472Z,100380.13
2022-08-14T05:21:57.964Z,100381.22
2022-08-14T05:24:27.383Z,100376.22
2022-08-14T05:26:54.198Z,100373.69
2022-08-14T05:29:22.039Z,100368.38
2022-08-14T05:31:48.953Z,100364.75
2022-08-14T05:34:23.636Z,100357.75
2022-08-14T05:37:01.993Z,100358.28
2022-08-14T05:39:31.101Z,100351.31
2022-08-14T05:41:58.176Z,100352.13
2022-08-14T05:44:29.533Z,100340.97
2022-08-14T05:46:56.724Z,100332.88
2022-08-14T05:49:23.329Z,100330.59
2022-08-14T05:51:59.706Z,100336.97
2022-08-14T05:54:28.460Z,100337.81
2022-08-14T05:57:01.903Z,100341.94
2022-08-14T05:59:30.066Z,100348.59
2022-08-14T06:02:03.696Z,100340.16
2022-08-14T06:04:32.529Z,100341.78
2022-08-14T06:06:59.366Z,100331.34
2022-08-14T06:09:25.774Z,100328.22
2022-08-14T06:11:52.235Z,100324.75
2022-08-14T06:14:21.477Z,100329.97
2022-08-14T06:16:53.269Z,100331.28
2022-08-14T06:19:20.409Z,100323.63
2022-08-14T06:24:25.945Z,100323.63
2022-08-14T06:26:56.648Z,100329.16
2022-08-14T06:29:23.692Z,100318.38
2022-08-14T06:31:54.517Z,100322.72
2022-08-14T06:35:11.157Z,100314.22
2022-08-14T06:37:13.059Z,100314.09
2022-08-14T06:39:43.170Z,100306.38
2022-08-14T06:42:32.568Z,100305.94
2022-08-14T06:44:57.902Z,100295.69
2022-08-14T06:47:24.955Z,100295.59
2022-08-14T06:49:57.703Z,100298.75
2022-08-14T06:52:24.971Z,100288.53
2022-08-14T06:54:51.520Z,100280.78
2022-08-14T06:57:19.002Z,100279.25
2022-08-14T06:59:48.038Z,100283.56
2022-08-14T07:02:35.931Z,100278.59
2022-08-14T07:05:23.222Z,100266.34
2022-08-14T07:07:50.761Z,100268.06
2022-08-14T07:10:17.670Z,100268.09
2022-08-14T07:13:02.164Z,100269.56
2022-08-14T07:15:32.398Z,100268.22
2022-08-14T07:18:01.114Z,100259.56
2022-08-14T07:20:30.957Z,100257.38
2022-08-14T07:23:07.319Z,100261.97
2022-08-14T07:25:38.417Z,100252.69
2022-08-14T07:28:13.047Z,100252.63
2022-08-14T07:30:51.601Z,100242.50
2022-08-14T07:33:24.252Z,100241.00
2022-08-14T07:35:58.818Z,100252.75
2022-08-14T07:38:32.053Z,100243.03
2022-08-14T07:41:00.403Z,100236.88
2022-08-14T07:43:26.935Z,100230.66
2022-08-14T07:45:54.176Z,100232.91
2022-08-14T07:48:25.277Z,100235.44
2022-08-14T07:50:53.029Z,100234.97
2022-08-14T07:53:22.444Z,100240.97
2022-08-14T07:56:00.023Z,100244.66
2022-08-14T07:58:30.618Z,100249.03
2022-08-14T08:01:02.385Z,100244.28
2022-08-14T08:03:33.305Z,100244.31
2022-08-14T08:06:01.096Z,100234.44
2022-08-14T08:08:31.387Z,100230.78
2022-08-14T08:11:02.800Z,100223.69
2022-08-14T08:13:33.668Z,100218.56
2022-08-14T08:16:00.434Z,100220.22
2022-08-14T08:18:29.256Z,100220.22
2022-08-14T08:20:59.625Z,100215.66
2022-08-14T08:23:40.233Z,100218.97
2022-08-14T08:26:10.241Z,100227.78
2022-08-14T08:28:36.692Z,100231.94
2022-08-14T08:31:06.532Z,100226.44
2022-08-14T08:33:37.486Z,100219.31
2022-08-14T08:36:13.033Z,100211.84
2022-08-14T08:39:15.290Z,100217.84
2022-08-14T08:41:49.462Z,100207.03
2022-08-14T08:44:31.885Z,100203.06
2022-08-14T08:47:05.354Z,100194.91
2022-08-14T08:49:48.220Z,100195.59
2022-08-14T08:52:24.862Z,100194.53
2022-08-14T08:54:55.912Z,100186.22
2022-08-14T08:57:22.356Z,100194.16
2022-08-14T08:59:55.058Z,100193.84
2022-08-14T09:02:26.018Z,100185.31
2022-08-14T09:05:03.724Z,100182.97
2022-08-14T09:07:30.699Z,100171.50
2022-08-14T09:09:59.531Z,100170.81
2022-08-14T09:12:36.076Z,100172.59
2022-08-14T09:15:12.076Z,100162.41
2022-08-14T09:17:41.298Z,100163.53
2022-08-14T09:20:11.678Z,100150.50
2022-08-14T09:22:42.698Z,100141.81
2022-08-14T09:25:16.033Z,100149.53
2022-08-14T09:27:42.784Z,100154.16
2022-08-14T09:30:31.562Z,100145.59
2022-08-14T09:33:09.152Z,100144.94
2022-08-14T09:36:21.679Z,100143.09
2022-08-14T09:39:22.845Z,100130.03
2022-08-14T09:42:20.120Z,100131.22
2022-08-14T09:45:26.147Z,100116.41
2022-08-14T09:47:57.327Z,100114.66
2022-08-14T09:50:29.909Z,100112.00
2022-08-14T09:53:04.506Z,100108.09
2022-08-14T09:55:42.300Z,100104.53
2022-08-14T09:58:19.898Z,100091.53
2022-08-14T10:01:00.652Z,100085.88
2022-08-14T10:03:35.276Z,100077.56
2022-08-14T10:06:11.991Z,100092.47
2022-08-14T10:08:51.829Z,100080.53
2022-08-14T10:11:23.476Z,100085.34
2022-08-14T10:13:54.315Z,100072.06
2022-08-14T10:16:33.932Z,100075.72
2022-08-14T10:19:07.423Z,100077.28
2022-08-14T10:21:58.836Z,100071.34
2022-08-14T10:24:36.285Z,100069.28
2022-08-14T10:27:03.658Z,100061.03
2022-08-14T10:29:39.833Z,100063.09
2022-08-14T10:32:17.992Z,100064.34
2022-08-14T10:34:46.912Z,100064.78
2022-08-14T10:37:19.942Z,100067.44
2022-08-14T10:40:10.802Z,100058.28
2022-08-14T10:42:56.666Z,100056.78
2022-08-14T10:45:26.000Z,100056.59
2022-08-14T10:48:07.558Z,100052.97
2022-08-14T10:51:08.492Z,100050.97
2022-08-14T10:56:03.716Z,100040.41
2022-08-14T10:58:32.982Z,100032.03
2022-08-14T11:01:44.860Z,100026.47
2022-08-14T11:58:33.394Z,99936.59
2022-08-14T12:01:06.531Z,99935.06
2022-08-14T12:03:45.899Z,99936.22
2022-08-14T12:06:29.358Z,99925.56
2022-08-14T12:09:02.656Z,99926.22
2022-08-14T12:11:43.957Z,99924.81
2022-08-14T12:14:34.919Z,99917.72
2022-08-14T12:17:01.943Z,99915.41
2022-08-14T12:19:33.727Z,99905.19
2022-08-14T12:22:02.103Z,99897.16
2022-08-14T12:24:36.849Z,99895.59
2022-08-14T12:27:06.702Z,99898.59
2022-08-14T12:29:33.759Z,99902.75
2022-08-14T12:32:08.747Z,99892.59
2022-08-14T12:34:37.053Z,99885.25
2022-08-14T12:37:08.849Z,99888.88
2022-08-14T12:39:39.752Z,99883.94
2022-08-14T12:42:07.043Z,99874.84
2022-08-14T12:44:42.839Z,99872.50
2022-08-14T12:47:17.080Z,99879.84
2022-08-14T12:49:54.219Z,99862.69
2022-08-14T12:52:56.201Z,99863.53
2022-08-14T12:55:32.757Z,99857.78
2022-08-14T12:58:29.204Z,99855.03
2022-08-14T13:01:16.888Z,99843.16
2022-08-14T13:03:48.121Z,99827.56
2022-08-14T13:06:19.188Z,99828.78
2022-08-14T13:08:52.947Z,99827.94
2022-08-14T13:11:24.033Z,99823.00
2022-08-14T13:13:58.573Z,99812.31
2022-08-14T13:16:37.759Z,99820.94
2022-08-14T13:19:05.699Z,99814.41
2022-08-14T13:22:05.141Z,99804.13
2022-08-14T13:24:27.937Z,99806.97
2022-08-14T13:26:58.218Z,99792.47
2022-08-14T13:29:29.588Z,99788.75
2022-08-14T13:31:58.296Z,99787.56
2022-08-14T13:34:27.129Z,99787.19
2022-08-14T13:37:03.725Z,99783.94
2022-08-14T13:39:36.140Z,99788.47
2022-08-14T13:42:08.572Z,99794.81
2022-08-14T13:44:42.790Z,99789.09
2022-08-14T13:47:10.866Z,99786.63
2022-08-14T13:49:40.405Z,99776.38
2022-08-14T13:52:51.713Z,99779.63
2022-08-14T13:55:13.456Z,99770.53
2022-08-14T13:57:49.570Z,99770.94
2022-08-14T14:00:21.863Z,99768.34
2022-08-14T14:03:00.112Z,99774.03
2022-08-14T14:05:52.189Z,99765.00
2022-08-14T14:08:18.889Z,99770.78
2022-08-14T14:11:02.281Z,99773.66
2022-08-14T14:13:31.013Z,99770.72
2022-08-14T14:16:02.741Z,99756.25
2022-08-14T14:18:34.830Z,99752.69
2022-08-14T14:21:03.145Z,99753.84
2022-08-14T14:23:30.297Z,99747.94
2022-08-14T14:25:59.142Z,99743.81
2022-08-14T14:28:33.500Z,99743.00
2022-08-14T14:31:06.981Z,99745.97
2022-08-14T14:33:47.841Z,99743.84
2022-08-14T14:36:24.216Z,99745.19
2022-08-14T14:38:52.940Z,99738.59
2022-08-14T14:41:22.475Z,99740.22
2022-08-14T14:43:51.647Z,99734.41
2022-08-14T14:46:20.357Z,99733.47
2022-08-14T14:48:54.690Z,99729.38
2022-08-14T14:51:21.777Z,99725.59
2022-08-14T14:53:48.222Z,99722.97
2022-08-14T14:56:50.917Z,99726.75
2022-08-14T14:59:01.626Z,99734.72
2022-08-14T15:01:28.737Z,99735.63
2022-08-14T15:03:55.395Z,99725.97
2022-08-14T15:06:30.316Z,99724.81
2022-08-14T15:08:59.556Z,99718.72
2022-08-14T15:11:30.454Z,99725.66
2022-08-14T15:13:58.955Z,99725.66
2022-08-14T15:16:26.981Z,99716.19
2022-08-14T15:18:53.753Z,99725.19
2022-08-14T15:21:20.265Z,99714.56
2022-08-14T15:23:48.062Z,99717.88
2022-08-14T15:26:24.107Z,99716.22
2022-08-14T15:29:03.327Z,99708.03
2022-08-14T15:31:32.696Z,99710.06
2022-08-14T15:34:45.320Z,99717.88
2022-08-14T15:37:06.209Z,99719.47
2022-08-14T15:39:38.445Z,99704.34
2022-08-14T15:42:14.566Z,99712.53
2022-08-14T15:44:57.162Z,99710.44
2022-08-14T15:47:28.828Z,99703.91
2022-08-14T15:49:59.588Z,99709.66
2022-08-14T15:52:32.756Z,99707.25
2022-08-14T15:55:15.526Z,99704.81
2022-08-14T15:58:02.128Z,99710.53
2022-08-14T16:00:52.741Z,99702.75
2022-08-14T16:03:25.050Z,99702.75
2022-08-14T16:06:02.697Z,99696.59
2022-08-14T16:08:30.820Z,99699.84
2022-08-14T16:11:03.365Z,99695.78
2022-08-14T16:13:42.164Z,99697.03
2022-08-14T16:16:34.412Z,99685.16
2022-08-14T16:19:12.779Z,99694.09
2022-08-14T16:22:01.888Z,99686.38
2022-08-14T16:24:29.084Z,99689.25
2022-08-14T16:27:00.686Z,99683.53
2022-08-14T16:29:30.106Z,99687.63
2022-08-14T16:31:58.806Z,99692.47
2022-08-14T16:34:45.805Z,99696.09
2022-08-14T16:37:13.233Z,99695.59
2022-08-14T16:39:41.763Z,99690.66
2022-08-14T16:42:39.163Z,99688.59
2022-08-14T16:46:43.028Z,99677.44
2022-08-14T16:49:12.930Z,99683.19
2022-08-14T16:51:41.439Z,99684.41
2022-08-14T16:54:34.162Z,99681.13
2022-08-14T16:57:17.163Z,99667.72
2022-08-14T16:59:52.598Z,99665.16
2022-08-14T17:02:34.341Z,99668.03
2022-08-14T17:05:24.794Z,99671.31
2022-08-14T17:08:03.695Z,99669.19
2022-08-14T17:10:50.002Z,99669.16
2022-08-14T17:13:47.495Z,99661.38
2022-08-14T17:16:25.157Z,99664.13
2022-08-14T17:19:00.901Z,99659.97
2022-08-14T17:21:31.605Z,99660.72
2022-08-14T17:24:00.644Z,99659.84
2022-08-14T17:26:46.486Z,99652.44
2022-08-14T17:29:19.105Z,99647.47
2022-08-14T17:31:58.974Z,99647.47
2022-08-14T17:34:50.264Z,99647.44
2022-08-14T17:37:45.791Z,99653.88
2022-08-14T17:40:20.364Z,99657.09
2022-08-14T17:42:53.398Z,99653.75
2022-08-14T17:45:42.941Z,99652.47
2022-08-14T17:49:10.710Z,99661.78
2022-08-14T17:51:23.688Z,99659.69
2022-08-14T17:54:01.523Z,99658.38
2022-08-14T17:56:30.807Z,99661.59
2022-08-14T17:59:06.162Z,99665.59
2022-08-14T18:01:38.820Z,99672.03
2022-08-14T18:04:28.559Z,99671.97
2022-08-14T18:06:58.917Z,99668.59
2022-08-14T18:09:57.460Z,99657.91
2022-08-14T18:12:36.332Z,99660.13
2022-08-14T18:15:17.453Z,99661.47
2022-08-14T18:17:52.997Z,99670.19
2022-08-14T18:21:43.050Z,99671.88
2022-08-14T18:23:13.041Z,99671.56
2022-08-14T18:25:48.167Z,99665.56
2022-08-14T18:28:35.405Z,99675.78
2022-08-14T18:31:21.025Z,99677.44
2022-08-14T18:34:11.756Z,99668.13
2022-08-14T18:36:57.450Z,99666.13
2022-08-14T18:40:02.249Z,99667.47
2022-08-14T18:42:23.810Z,99676.06
2022-08-14T18:44:50.782Z,99679.06
2022-08-14T18:47:19.926Z,99671.47
2022-08-14T18:49:55.588Z,99680.19
2022-08-14T18:52:29.656Z,99674.19
2022-08-14T18:54:59.491Z,99671.09
2022-08-14T18:57:27.033Z,99674.53
2022-08-14T19:00:32.112Z,99669.28
2022-08-14T19:03:00.557Z,99685.13
2022-08-14T19:05:47.473Z,99680.00
2022-08-14T19:08:25.192Z,99681.75
2022-08-14T19:10:54.271Z,99674.63
2022-08-14T19:13:48.719Z,99683.16
2022-08-14T19:16:23.331Z,99689.47
2022-08-14T19:18:53.262Z,99688.44
2022-08-14T19:21:24.996Z,99688.59
2022-08-14T19:24:27.776Z,99691.13
2022-08-14T19:27:24.414Z,99687.50
2022-08-14T19:30:20.564Z,99690.28
2022-08-14T19:32:57.138Z,99691.16
2022-08-14T19:35:41.697Z,99702.38
2022-08-14T19:38:46.288Z,99695.13
2022-08-14T19:41:15.902Z,99703.22
2022-08-14T19:43:55.546Z,99698.03
2022-08-14T19:46:38.904Z,99696.16
2022-08-14T19:49:21.403Z,99709.13
2022-08-14T19:51:49.956Z,99696.75
2022-08-14T19:54:16.496Z,99702.16
2022-08-14T19:56:45.102Z,99698.75
2022-08-14T19:59:18.193Z,99701.34
2022-08-14T20:01:49.605Z,99701.78
2022-08-14T20:04:46.808Z,99703.16
2022-08-14T20:07:27.158Z,99704.22
2022-08-14T20:11:06.266Z,99705.34
2022-08-14T20:13:32.698Z,99705.78
2022-08-14T20:16:12.162Z,99699.25
2022-08-14T20:18:49.174Z,99703.34
2022-08-14T20:21:18.268Z,99707.53
2022-08-14T20:23:48.139Z,99701.25
2022-08-14T20:26:31.415Z,99703.47
2022-08-14T20:29:05.000Z,99705.19
2022-08-14T20:31:37.064Z,99707.06
2022-08-14T20:34:19.362Z,99704.94
2022-08-14T20:37:11.542Z,99709.59
2022-08-14T20:39:43.562Z,99702.50
2022-08-14T20:42:31.985Z,99706.34
2022-08-14T20:45:29.624Z,99711.69
2022-08-14T20:48:01.606Z,99698.84
2022-08-14T20:50:29.945Z,99703.81
2022-08-14T20:53:05.697Z,99705.88
2022-08-14T20:55:41.759Z,99708.25
2022-08-14T20:58:42.244Z,99704.03
2022-08-14T21:01:19.610Z,99697.97
2022-08-14T21:03:56.795Z,99695.31
2022-08-14T21:06:30.648Z,99700.31
2022-08-14T21:09:18.741Z,99706.00
2022-08-14T21:12:02.696Z,99710.59
2022-08-14T21:14:29.668Z,99708.63
2022-08-14T21:16:58.534Z,99705.66
2022-08-14T21:19:27.353Z,99710.81
2022-08-14T21:21:55.733Z,99711.31
2022-08-14T21:24:39.391Z,99711.69
2022-08-14T21:27:12.611Z,99708.72
2022-08-14T21:29:41.044Z,99718.03
2022-08-14T21:32:33.840Z,99716.06
2022-08-14T21:35:07.991Z,99717.50
2022-08-14T21:37:36.489Z,99718.69
2022-08-14T21:40:40.981Z,99721.34
2022-08-14T21:42:50.398Z,99719.19
2022-08-14T21:45:18.333Z,99718.34
2022-08-14T21:47:44.919Z,99715.03
2022-08-14T21:50:59.892Z,99718.50
2022-08-14T21:53:03.593Z,99730.41
2022-08-14T21:55:31.559Z,99723.81
2022-08-14T21:58:51.162Z,99727.59
2022-08-14T22:00:46.490Z,99720.50
2022-08-14T22:03:16.978Z,99718.97
2022-08-14T22:05:46.016Z,99715.34
2022-08-14T22:08:16.082Z,99708.25
2022-08-14T22:10:46.788Z,99710.06
2022-08-14T22:13:19.084Z,99712.34
2022-08-14T22:15:49.549Z,99715.34
2022-08-14T22:18:19.960Z,99718.97
2022-08-14T22:20:48.177Z,99715.00
2022-08-14T22:23:20.725Z,99709.06
2022-08-14T22:25:47.311Z,99708.41
2022-08-14T22:28:20.188Z,99713.34
2022-08-14T22:30:47.821Z,99705.28
2022-08-14T22:33:26.520Z,99706.59
2022-08-14T22:35:58.380Z,99709.56
2022-08-14T22:38:37.602Z,99713.22
2022-08-14T22:41:28.036Z,99707.06
2022-08-14T22:43:56.510Z,99708.56
2022-08-14T22:46:25.600Z,99701.63
2022-08-14T22:48:53.761Z,99693.84
2022-08-14T22:51:23.378Z,99692.19
2022-08-14T22:53:53.157Z,99688.88
2022-08-14T22:56:22.249Z,99687.88
2022-08-14T22:59:04.743Z,99689.69
2022-08-14T23:01:56.182Z,99689.88
2022-08-14T23:04:34.769Z,99695.81
2022-08-14T23:07:14.515Z,99690.53
2022-08-14T23:09:56.989Z,99688.00
2022-08-14T23:12:28.657Z,99692.31
2022-08-14T23:14:57.057Z,99699.72
2022-08-14T23:17:23.738Z,99706.00
2022-08-14T23:19:56.340Z,99711.09
2022-08-14T23:22:26.150Z,99691.63
2022-08-14T23:24:53.335Z,99691.75
2022-08-14T23:27:32.108Z,99702.63
2022-08-14T23:30:34.652Z,99705.59
2022-08-14T23:33:02.130Z,99700.75
2022-08-14T23:35:29.097Z,99709.34
2022-08-14T23:38:01.848Z,99709.00
2022-08-14T23:40:30.154Z,99698.56
2022-08-14T23:43:02.269Z,99695.88
2022-08-14T23:45:37.123Z,99697.03
2022-08-14T23:48:04.418Z,99702.13
2022-08-14T23:50:38.679Z,99715.47
2022-08-14T23:53:28.222Z,99714.09
2022-08-14T23:56:18.478Z,99717.38
2022-08-14T23:58:49.236Z,99705.13
